Accueil
METAR-TAF:

METAR-TAF

Aéroports :

Aéroport d'Épinal-Mirecourt

Épinal, France

latitude: 48-19-31N, longitude: 6-04-00E, altitude: 330 m

Observation

Le bulletin a été fait il y a 29 minutes, à 07:30 UTC
Vent 10 kt de sud
Température -1°C
Humidité 93%
Pression 1020 hPa
Visibilité: 2200 m
Ciel couvert à une hauteur de 200 ft
brume

METAR: LFSG 060730Z AUTO 19010KT 2200 BR OVC002 M01/M02 Q1020

Heure: 08:59 (07:59 UTC)


TAF: absent

Observations et prévisions météorologiques de plus de 4000 aéroports (messages METAR et TAF).

Les stations disponibles sont représentées par des disques jaunes et rouges sur la carte.

Passer la souris dessus pour voir le nom de la station.

Cliquer dessus pour voir les observations et prévisions météorologiques.

Pour changer de carte: cliquez sur les boutons verts avec une croix noire pour zoomer, sur le bouton vert avec un tiret pour effectuer un zoom arrière, ou sur les flèches vertes pour les cartes adjacentes.


METAR-TAF: